createdAt,value
2022-10-19T00:00:34.768Z,7.76
2022-10-19T00:05:15.233Z,7.63
2022-10-19T00:09:55.520Z,7.67
2022-10-19T00:14:37.211Z,7.60
2022-10-19T00:19:20.332Z,7.64
2022-10-19T00:24:00.878Z,7.60
2022-10-19T00:28:41.532Z,7.60
2022-10-19T00:33:24.280Z,7.54
2022-10-19T00:38:04.381Z,7.49
2022-10-19T00:42:44.894Z,7.35
2022-10-19T00:47:25.946Z,7.32
2022-10-19T00:52:11.078Z,7.18
2022-10-19T00:56:54.538Z,7.20
2022-10-19T01:01:35.306Z,7.10
2022-10-19T01:06:16.396Z,7.14
2022-10-19T01:11:14.296Z,6.94
2022-10-19T01:16:01.089Z,6.97
2022-10-19T01:21:16.386Z,6.98
2022-10-19T01:26:09.385Z,6.99
2022-10-19T01:30:58.639Z,6.96
2022-10-19T01:35:46.288Z,6.84
2022-10-19T01:40:32.033Z,6.82
2022-10-19T01:45:16.612Z,6.77
2022-10-19T01:50:03.255Z,6.77
2022-10-19T01:54:48.444Z,6.74
2022-10-19T01:59:28.841Z,6.65
2022-10-19T02:04:10.936Z,6.52
2022-10-19T02:08:54.644Z,6.50
2022-10-19T02:13:37.285Z,6.55
2022-10-19T02:18:23.145Z,6.53
2022-10-19T02:23:04.843Z,6.42
2022-10-19T02:27:46.977Z,6.47
2022-10-19T02:32:28.026Z,6.41
2022-10-19T02:37:08.486Z,6.45
2022-10-19T02:41:54.662Z,6.47
2022-10-19T02:46:41.814Z,6.62
2022-10-19T02:51:29.641Z,6.61
2022-10-19T02:56:10.581Z,6.95
2022-10-19T03:00:50.928Z,6.89
2022-10-19T03:05:32.912Z,6.86
2022-10-19T03:10:12.872Z,6.71
2022-10-19T03:14:53.353Z,6.77
2022-10-19T03:19:35.623Z,6.47
2022-10-19T03:24:18.060Z,6.45
2022-10-19T03:28:58.409Z,6.29
2022-10-19T03:33:38.682Z,6.21
2022-10-19T03:38:18.937Z,6.25
2022-10-19T03:43:00.843Z,6.71
2022-10-19T03:47:41.405Z,6.63
2022-10-19T03:52:21.905Z,6.94
2022-10-19T03:57:02.010Z,7.23
2022-10-19T04:01:45.807Z,7.35
2022-10-19T04:06:28.202Z,7.36
2022-10-19T04:11:10.604Z,7.59
2022-10-19T04:15:50.649Z,7.54
2022-10-19T04:20:32.201Z,7.40
2022-10-19T04:25:12.765Z,7.63
2022-10-19T04:29:52.858Z,7.68
2022-10-19T04:34:36.369Z,7.72
2022-10-19T04:39:20.904Z,7.59
2022-10-19T04:44:02.822Z,7.75
2022-10-19T04:48:43.770Z,7.76
2022-10-19T04:58:11.570Z,7.88
2022-10-19T05:02:51.991Z,7.86
2022-10-19T05:07:33.018Z,7.79
2022-10-19T05:12:13.767Z,7.73
2022-10-19T05:16:55.548Z,7.69
2022-10-19T05:21:36.014Z,7.67
2022-10-19T05:26:18.546Z,7.67
2022-10-19T05:31:07.005Z,7.78
2022-10-19T05:35:48.470Z,7.72
2022-10-19T05:40:28.490Z,7.65
2022-10-19T05:45:09.279Z,7.60
2022-10-19T05:49:49.676Z,7.60
2022-10-19T05:54:31.259Z,7.66
2022-10-19T05:59:15.660Z,7.49
2022-10-19T06:03:57.850Z,7.37
2022-10-19T06:08:39.420Z,7.36
2022-10-19T06:13:21.642Z,7.23
2022-10-19T06:18:01.677Z,7.43
2022-10-19T06:22:42.818Z,7.36
2022-10-19T06:27:23.182Z,7.44
2022-10-19T06:32:04.916Z,7.49
2022-10-19T06:36:45.025Z,7.65
2022-10-19T06:41:25.345Z,7.78
2022-10-19T06:46:06.615Z,7.92
2022-10-19T06:50:48.159Z,8.10
2022-10-19T06:55:28.547Z,8.24
2022-10-19T07:00:09.809Z,8.38
2022-10-19T07:04:50.162Z,8.54
2022-10-19T07:09:32.229Z,8.89
2022-10-19T07:14:12.617Z,9.19
2022-10-19T07:18:54.355Z,9.26
2022-10-19T07:23:36.266Z,9.35
2022-10-19T07:28:18.040Z,9.66
2022-10-19T07:32:58.410Z,10.07
2022-10-19T07:37:38.462Z,10.14
2022-10-19T07:42:19.568Z,10.32
2022-10-19T07:47:01.246Z,10.78
2022-10-19T07:51:41.962Z,10.87
2022-10-19T07:56:24.289Z,11.15
2022-10-19T08:01:06.440Z,11.12
2022-10-19T08:05:47.972Z,11.47
2022-10-19T08:10:28.207Z,11.52
2022-10-19T08:15:08.949Z,11.47
2022-10-19T08:19:49.232Z,11.40
2022-10-19T08:24:31.204Z,11.57
2022-10-19T08:29:13.852Z,12.20
2022-10-19T08:33:54.263Z,11.95
2022-10-19T08:38:37.059Z,12.71
2022-10-19T08:43:25.320Z,13.18
2022-10-19T08:48:23.608Z,13.38
2022-10-19T08:53:06.135Z,13.18
2022-10-19T08:57:54.775Z,13.58
2022-10-19T09:02:55.854Z,14.52
2022-10-19T09:07:45.361Z,15.14
2022-10-19T09:12:39.337Z,14.31
2022-10-19T09:17:20.335Z,15.44
2022-10-19T09:22:06.307Z,15.42
2022-10-19T09:26:52.976Z,15.60
2022-10-19T09:31:39.589Z,15.70
2022-10-19T09:36:22.718Z,15.86
2022-10-19T09:41:17.742Z,16.37
2022-10-19T09:46:13.858Z,15.20
2022-10-19T09:51:00.607Z,16.06
2022-10-19T09:55:45.059Z,16.01
2022-10-19T10:00:33.093Z,15.46
2022-10-19T10:05:16.211Z,15.13
2022-10-19T10:09:56.646Z,15.91
2022-10-19T10:14:39.890Z,16.21
2022-10-19T10:19:27.392Z,16.35
2022-10-19T10:24:18.303Z,15.79
2022-10-19T10:29:01.360Z,16.62
2022-10-19T10:33:46.148Z,17.41
2022-10-19T10:38:32.556Z,16.64
2022-10-19T10:43:17.862Z,15.46
2022-10-19T10:47:59.189Z,16.78
2022-10-19T10:52:59.453Z,17.20
2022-10-19T10:57:46.293Z,17.18
2022-10-19T11:02:33.585Z,17.82
2022-10-19T11:07:19.378Z,17.40
2022-10-19T11:12:04.117Z,17.91
2022-10-19T11:16:48.870Z,17.32
2022-10-19T11:21:35.732Z,18.49
2022-10-19T11:26:31.718Z,17.07
2022-10-19T11:31:17.395Z,17.69
2022-10-19T11:36:00.600Z,18.02
2022-10-19T11:41:06.112Z,18.12
2022-10-19T11:45:54.655Z,18.25
2022-10-19T11:50:46.618Z,17.18
2022-10-19T11:55:45.758Z,17.28
2022-10-19T12:00:38.839Z,18.13
2022-10-19T12:05:26.538Z,18.10
2022-10-19T12:10:18.968Z,17.67
2022-10-19T12:15:13.857Z,18.36
2022-10-19T12:19:56.821Z,17.82
2022-10-19T12:24:37.152Z,18.30
2022-10-19T12:29:22.059Z,18.66
2022-10-19T12:34:10.310Z,19.20
2022-10-19T12:39:01.165Z,19.23
2022-10-19T12:43:54.236Z,18.47
2022-10-19T12:48:36.386Z,19.30
2022-10-19T12:58:22.718Z,19.12
2022-10-19T13:03:08.251Z,17.67
2022-10-19T13:12:44.308Z,18.48
2022-10-19T13:17:43.999Z,17.70
2022-10-19T13:22:29.898Z,17.69
2022-10-19T13:27:29.138Z,19.42
2022-10-19T13:32:42.968Z,18.45
2022-10-19T13:37:23.550Z,18.49
2022-10-19T13:42:03.744Z,18.30
2022-10-19T13:46:54.774Z,17.76
2022-10-19T13:51:47.738Z,17.35
2022-10-19T13:56:42.816Z,17.59
2022-10-19T14:01:32.805Z,17.37
2022-10-19T14:06:23.524Z,17.22
2022-10-19T14:11:14.416Z,16.76
2022-10-19T14:15:57.304Z,16.92
2022-10-19T14:20:39.309Z,17.44
2022-10-19T14:25:23.037Z,19.18
2022-10-19T14:30:06.037Z,19.97
2022-10-19T14:34:48.438Z,20.26
2022-10-19T14:39:33.181Z,19.29
2022-10-19T14:44:37.406Z,19.66
2022-10-19T14:49:19.214Z,18.65
2022-10-19T14:54:04.465Z,19.05
2022-10-19T14:58:51.745Z,18.40
2022-10-19T15:03:32.653Z,18.47
2022-10-19T15:08:25.381Z,18.30
2022-10-19T15:13:08.549Z,18.88
2022-10-19T15:17:54.192Z,18.27
2022-10-19T15:22:41.609Z,17.69
2022-10-19T15:27:29.415Z,17.85
2022-10-19T15:32:17.656Z,17.33
2022-10-19T15:37:00.596Z,17.44
2022-10-19T15:41:41.109Z,16.72
2022-10-19T15:46:25.804Z,15.98
2022-10-19T15:51:27.546Z,15.67
2022-10-19T15:56:08.122Z,15.76
2022-10-19T16:00:48.345Z,15.62
2022-10-19T16:05:29.991Z,15.33
2022-10-19T16:10:16.652Z,15.04
2022-10-19T16:14:57.329Z,14.75
2022-10-19T16:19:37.670Z,14.64
2022-10-19T16:24:19.415Z,14.58
2022-10-19T16:29:00.726Z,14.33
2022-10-19T16:33:40.981Z,14.22
2022-10-19T16:38:21.298Z,13.93
2022-10-19T16:43:02.996Z,13.68
2022-10-19T16:47:43.288Z,13.62
2022-10-19T16:52:23.664Z,13.56
2022-10-19T16:57:07.263Z,13.48
2022-10-19T17:01:51.863Z,13.48
2022-10-19T17:06:34.165Z,13.42
2022-10-19T17:11:17.002Z,13.34
2022-10-19T17:15:57.502Z,13.24
2022-10-19T17:20:39.918Z,13.23
2022-10-19T17:25:20.159Z,13.11
2022-10-19T17:30:00.571Z,13.11
2022-10-19T17:34:40.673Z,12.95
2022-10-19T17:39:28.935Z,12.81
2022-10-19T17:44:09.949Z,12.84
2022-10-19T17:48:50.163Z,13.04
2022-10-19T17:53:31.245Z,12.96
2022-10-19T17:58:12.845Z,13.01
2022-10-19T18:02:53.299Z,13.01
2022-10-19T18:07:34.057Z,13.02
2022-10-19T18:12:14.695Z,13.04
2022-10-19T18:16:56.405Z,12.93
2022-10-19T18:21:39.617Z,12.90
2022-10-19T18:26:22.168Z,12.90
2022-10-19T18:31:06.959Z,12.90
2022-10-19T18:35:48.392Z,12.87
2022-10-19T18:40:28.620Z,12.76
2022-10-19T18:45:10.288Z,12.70
2022-10-19T18:49:50.279Z,12.70
2022-10-19T18:54:32.029Z,12.68
2022-10-19T18:59:12.424Z,12.63
2022-10-19T19:03:54.441Z,12.49
2022-10-19T19:08:34.959Z,12.41
2022-10-19T19:13:16.500Z,12.41
2022-10-19T19:17:56.555Z,12.30
2022-10-19T19:22:37.649Z,12.31
2022-10-19T19:27:18.218Z,12.30
2022-10-19T19:31:59.481Z,12.25
2022-10-19T19:41:28.829Z,12.11
2022-10-19T19:46:12.639Z,12.12
2022-10-19T19:50:54.311Z,12.07
2022-10-19T19:55:38.902Z,12.05
2022-10-19T20:00:19.677Z,11.97
2022-10-19T20:05:00.095Z,11.92
2022-10-19T20:09:41.900Z,11.90
2022-10-19T20:14:22.337Z,11.86
2022-10-19T20:19:05.924Z,11.87
2022-10-19T20:23:46.422Z,11.86
2022-10-19T20:28:28.650Z,11.84
2022-10-19T20:33:08.890Z,11.76
2022-10-19T20:37:50.252Z,11.74
2022-10-19T20:42:30.514Z,11.65
2022-10-19T20:47:12.714Z,11.65
2022-10-19T20:51:54.901Z,11.61
2022-10-19T20:56:37.531Z,11.55
2022-10-19T21:01:19.752Z,11.45
2022-10-19T21:06:05.104Z,11.63
2022-10-19T21:10:45.295Z,11.62
2022-10-19T21:15:26.681Z,11.76
2022-10-19T21:20:07.928Z,11.84
2022-10-19T21:24:49.189Z,12.00
2022-10-19T21:29:29.670Z,12.00
2022-10-19T21:34:13.402Z,12.05
2022-10-19T21:38:53.390Z,12.01
2022-10-19T21:43:35.827Z,12.02
2022-10-19T21:48:16.016Z,11.99
2022-10-19T21:52:56.141Z,12.07
2022-10-19T21:57:36.706Z,12.19
2022-10-19T22:02:18.795Z,12.18
2022-10-19T22:06:59.592Z,12.18
2022-10-19T22:11:39.688Z,12.08
2022-10-19T22:16:22.046Z,11.98
2022-10-19T22:21:05.316Z,11.94
2022-10-19T22:25:45.593Z,11.95
2022-10-19T22:30:26.693Z,12.03
2022-10-19T22:35:07.542Z,12.10
2022-10-19T22:39:49.146Z,11.99
2022-10-19T22:44:29.914Z,11.99
2022-10-19T22:49:10.186Z,11.92
2022-10-19T22:53:50.371Z,11.83
2022-10-19T22:58:32.218Z,11.86
2022-10-19T23:03:12.495Z,11.83
2022-10-19T23:07:52.856Z,11.82
2022-10-19T23:12:33.045Z,11.81
2022-10-19T23:17:14.696Z,11.80
2022-10-19T23:21:54.856Z,11.79
2022-10-19T23:26:35.002Z,11.83
2022-10-19T23:31:17.791Z,11.79
2022-10-19T23:36:05.497Z,11.83
2022-10-19T23:40:45.992Z,11.79
2022-10-19T23:45:26.291Z,11.75
2022-10-19T23:50:07.444Z,11.71
2022-10-19T23:54:48.957Z,11.74
2022-10-19T23:59:29.562Z,11.68
